Time;durP1;ratioP1;P1;durP2;ratioP2;P2;SDS_P1;SDS_P2;PMS_P1;PMS_P2;Temp;Humidity;BMP_temperature;BMP_pressure;BME280_temperature;BME280_humidity;BME280_pressure;Samples;Min_cycle;Max_cycle;Signal;HPM_P1;HPM_P2
2022/09/20 00:01:05;;;;;;;1.75;1.25;;;22.50;57.70;;;;;;4984674;28;20042;-14
2022/09/20 00:03:30;;;;;;;1.02;0.95;;;22.50;57.70;;;;;;4979594;28;20042;-15
2022/09/20 00:05:59;;;;;;;1.30;1.20;;;22.50;57.60;;;;;;4983730;28;20047;-15
2022/09/20 00:08:24;;;;;;;1.30;1.20;;;22.60;57.70;;;;;;4981814;28;20046;-14
2022/09/20 00:10:52;;;;;;;1.83;1.40;;;22.50;57.70;;;;;;4985155;28;20489;-15
2022/09/20 00:13:17;;;;;;;1.13;1.00;;;22.50;57.70;;;;;;4982279;28;20038;-18
2022/09/20 00:15:44;;;;;;;1.13;1.05;;;22.50;57.70;;;;;;4983518;28;20053;-15
2022/09/20 00:18:10;;;;;;;1.70;1.20;;;22.50;57.70;;;;;;4981686;28;20069;-16
2022/09/20 00:20:36;;;;;;;1.35;1.20;;;22.50;57.80;;;;;;4984123;28;20420;-15
2022/09/20 00:23:01;;;;;;;1.45;1.35;;;22.50;57.80;;;;;;4983101;28;20489;-14
2022/09/20 00:25:27;;;;;;;1.40;1.30;;;22.50;57.70;;;;;;4982590;28;20074;-15
2022/09/20 00:27:52;;;;;;;2.45;1.20;;;22.50;57.60;;;;;;4983071;28;20031;-15
2022/09/20 00:30:18;;;;;;;1.27;1.08;;;22.50;57.70;;;;;;4983494;28;20051;-15
2022/09/20 00:32:43;;;;;;;1.17;1.08;;;22.50;57.70;;;;;;4980979;28;20046;-19
2022/09/20 00:35:09;;;;;;;0.80;0.80;;;22.50;57.70;;;;;;4993471;28;20113;-16
2022/09/20 00:37:39;;;;;;;1.40;1.30;;;22.50;57.70;;;;;;4986726;28;20050;-15
2022/09/20 00:40:07;;;;;;;1.00;1.00;;;22.50;57.70;;;;;;4985771;28;20078;-19
2022/09/20 00:42:33;;;;;;;1.27;1.17;;;22.50;57.70;;;;;;4985579;28;20078;-14
2022/09/20 00:44:59;;;;;;;1.10;0.98;;;22.50;57.70;;;;;;4983357;28;20590;-14
2022/09/20 00:47:43;;;;;;;0.95;0.82;;;22.50;57.80;;;;;;4985749;28;20491;-14
2022/09/20 00:50:22;;;;;;;1.00;0.88;;;22.40;57.80;;;;;;5002049;28;20042;-18
2022/09/20 00:52:49;;;;;;;1.10;1.00;;;22.40;57.80;;;;;;5001129;28;20050;-15
2022/09/20 00:55:15;;;;;;;0.98;0.98;;;22.50;57.80;;;;;;4983713;28;20046;-16
2022/09/20 00:57:41;;;;;;;1.38;1.08;;;22.40;57.70;;;;;;4984271;28;20051;-15
2022/09/20 01:00:08;;;;;;;1.02;0.93;;;22.40;57.70;;;;;;4987279;28;20580;-19
2022/09/20 01:02:34;;;;;;;0.75;0.73;;;22.40;57.90;;;;;;4981225;28;20501;-19
2022/09/20 01:04:59;;;;;;;0.93;0.80;;;22.40;57.70;;;;;;4967297;28;20046;-19
2022/09/20 01:07:25;;;;;;;0.65;0.60;;;22.50;57.70;;;;;;4985078;28;20053;-18
2022/09/20 01:09:50;;;;;;;0.80;0.80;;;22.40;58.30;;;;;;4983823;28;20121;-19
2022/09/20 01:12:25;;;;;;;1.20;1.10;;;22.40;57.70;;;;;;4984938;28;20047;-20
2022/09/20 01:14:51;;;;;;;1.10;1.00;;;22.40;57.60;;;;;;4982546;28;20038;-18
2022/09/20 01:17:18;;;;;;;1.33;0.80;;;22.40;57.80;;;;;;4985517;28;20421;-19
2022/09/20 01:20:09;;;;;;;0.88;0.85;;;22.40;57.60;;;;;;4991118;28;20582;-19
2022/09/20 01:23:12;;;;;;;0.77;0.77;;;22.50;57.70;;;;;;4983460;28;20065;-19
2022/09/20 01:25:59;;;;;;;0.60;0.60;;;22.40;57.70;;;;;;4985492;28;20054;-19
2022/09/20 01:28:25;;;;;;;0.80;0.80;;;22.40;57.90;;;;;;4984528;28;20050;-19
2022/09/20 01:30:54;;;;;;;1.48;1.00;;;22.40;57.70;;;;;;4982426;28;20065;-19
2022/09/20 01:33:40;;;;;;;0.60;0.60;;;22.50;57.80;;;;;;4984995;28;20050;-19
2022/09/20 01:36:06;;;;;;;0.90;0.80;;;22.40;57.70;;;;;;4982694;28;20049;-19
2022/09/20 01:39:04;;;;;;;0.93;0.70;;;22.40;57.70;;;;;;4967313;28;20058;-19
2022/09/20 01:41:40;;;;;;;0.70;0.65;;;22.40;57.80;;;;;;5000532;28;20718;-19
2022/09/20 01:44:08;;;;;;;0.60;0.60;;;22.40;57.90;;;;;;4982698;28;20117;-19
2022/09/20 01:46:34;;;;;;;0.68;0.65;;;22.40;58.00;;;;;;4985155;28;20049;-19
2022/09/20 01:49:20;;;;;;;0.73;0.73;;;22.40;57.90;;;;;;4984904;28;20047;-19
2022/09/20 01:52:01;;;;;;;0.68;0.55;;;22.40;57.90;;;;;;5000695;28;20046;-19
2022/09/20 01:54:45;;;;;;;0.57;0.57;;;22.40;57.80;;;;;;4982321;28;20042;-19
2022/09/20 01:57:10;;;;;;;0.55;0.50;;;22.40;57.80;;;;;;4984607;28;20117;-19
2022/09/20 02:00:08;;;;;;;0.55;0.55;;;22.40;57.90;;;;;;4984594;28;20145;-19
2022/09/20 02:03:00;;;;;;;0.63;0.63;;;22.40;57.90;;;;;;4977500;28;20552;-20
2022/09/20 02:05:29;;;;;;;0.77;0.77;;;22.40;57.90;;;;;;4982302;28;20051;-19
2022/09/20 02:08:13;;;;;;;0.70;0.70;;;22.30;57.80;;;;;;4984449;28;20046;-20
2022/09/20 02:11:00;;;;;;;0.88;0.65;;;22.40;58.00;;;;;;4985325;28;20173;-19
2022/09/20 02:13:28;;;;;;;1.35;0.60;;;22.30;57.70;;;;;;4982991;28;20095;-20
2022/09/20 02:16:31;;;;;;;0.70;0.70;;;22.40;58.00;;;;;;4977762;28;20055;-19
2022/09/20 02:19:15;;;;;;;0.57;0.57;;;22.30;57.80;;;;;;4982349;28;20047;-19
2022/09/20 02:22:03;;;;;;;0.60;0.60;;;22.30;57.90;;;;;;4982302;28;20505;-19
2022/09/20 02:24:38;;;;;;;0.80;0.50;;;22.30;58.00;;;;;;4980841;28;20049;-19
2022/09/20 02:27:04;;;;;;;2.05;0.70;;;22.30;58.00;;;;;;4981420;28;20098;-19
2022/09/20 02:29:53;;;;;;;0.82;0.50;;;22.30;58.00;;;;;;4982005;28;20520;-19
2022/09/20 02:32:25;;;;;;;0.60;0.60;;;22.30;58.10;;;;;;4997328;28;20053;-19
2022/09/20 02:35:21;;;;;;;0.90;0.50;;;22.30;58.10;;;;;;4985348;28;20046;-18
2022/09/20 02:38:04;;;;;;;0.70;0.70;;;22.30;58.00;;;;;;4981982;28;20128;-19
2022/09/20 02:40:47;;;;;;;0.47;0.47;;;22.30;58.00;;;;;;4991307;28;20042;-20
2022/09/20 02:43:37;;;;;;;0.35;0.35;;;22.30;58.00;;;;;;4983661;28;20462;-19
2022/09/20 02:46:07;;;;;;;0.40;0.40;;;22.30;58.00;;;;;;4985083;28;20042;-18
2022/09/20 02:48:55;;;;;;;0.50;0.50;;;22.30;58.10;;;;;;4978942;28;20133;-19
2022/09/20 02:51:35;;;;;;;1.58;0.40;;;22.30;58.10;;;;;;4981405;28;20053;-19
2022/09/20 02:54:12;;;;;;;0.40;0.40;;;22.30;58.10;;;;;;4966595;28;20540;-19
2022/09/20 02:56:54;;;;;;;0.50;0.50;;;22.30;58.10;;;;;;4966624;28;20065;-19
2022/09/20 03:00:01;;;;;;;0.50;0.50;;;22.30;58.10;;;;;;4979215;28;20134;-19
2022/09/20 03:02:50;;;;;;;0.40;0.40;;;22.20;58.10;;;;;;5000966;28;20555;-19
2022/09/20 03:05:32;;;;;;;0.52;0.52;;;22.20;58.20;;;;;;4984009;28;20119;-19
2022/09/20 03:08:17;;;;;;;0.55;0.55;;;22.20;58.30;;;;;;4982554;28;20050;-19
2022/09/20 03:11:04;;;;;;;0.40;0.40;;;22.20;58.30;;;;;;4975607;28;20054;-18
2022/09/20 03:13:54;;;;;;;0.47;0.45;;;22.20;58.30;;;;;;4982103;28;20038;-28
2022/09/20 03:16:23;;;;;;;0.43;0.43;;;22.20;58.30;;;;;;4982778;28;20220;-19
2022/09/20 03:19:25;;;;;;;0.35;0.35;;;22.20;58.30;;;;;;4983338;28;20050;-18
2022/09/20 03:22:15;;;;;;;0.30;0.30;;;22.20;58.30;;;;;;4984586;28;20461;-23
2022/09/20 03:24:58;;;;;;;0.45;0.45;;;22.20;58.20;;;;;;4980611;28;20127;-19
2022/09/20 03:27:49;;;;;;;0.30;0.30;;;22.20;58.30;;;;;;4982051;28;20043;-19
2022/09/20 03:30:31;;;;;;;0.30;0.30;;;22.20;58.30;;;;;;4981748;28;20049;-18
2022/09/20 03:33:11;;;;;;;0.40;0.40;;;22.20;58.30;;;;;;4981211;28;20038;-19
2022/09/20 03:36:03;;;;;;;0.40;0.40;;;22.20;58.30;;;;;;4987839;28;20125;-19
2022/09/20 03:38:46;;;;;;;6.80;1.33;;;22.20;58.30;;;;;;5036460;28;20148;-23
2022/09/20 03:41:24;;;;;;;0.43;0.43;;;22.20;58.30;;;;;;5041396;28;20060;-19
2022/09/20 03:43:56;;;;;;;0.40;0.40;;;22.20;58.30;;;;;;5037835;28;20036;-18
2022/09/20 03:46:28;;;;;;;0.80;0.40;;;22.10;58.30;;;;;;5038249;28;20626;-19
2022/09/20 03:48:54;;;;;;;0.45;0.45;;;22.10;58.30;;;;;;5036894;28;20120;-19
2022/09/20 03:51:41;;;;;;;0.35;0.35;;;22.10;58.30;;;;;;5038988;28;20137;-20
2022/09/20 03:54:33;;;;;;;0.40;0.40;;;22.10;58.40;;;;;;5038575;28;20022;-19
2022/09/20 03:57:09;;;;;;;0.40;0.30;;;22.10;58.40;;;;;;5024027;28;20122;-19
2022/09/20 03:59:45;;;;;;;0.30;0.30;;;22.10;58.40;;;;;;5021299;28;20099;-19
2022/09/20 04:02:41;;;;;;;0.30;0.30;;;22.10;58.40;;;;;;5023079;28;20079;-19
2022/09/20 04:05:16;;;;;;;0.30;0.30;;;22.10;58.30;;;;;;5035005;28;20045;-19
2022/09/20 04:08:12;;;;;;;0.70;0.55;;;22.10;58.30;;;;;;5021965;28;20309;-19
2022/09/20 04:11:05;;;;;;;0.20;0.20;;;22.10;58.30;;;;;;5044650;28;20044;-19
2022/09/20 04:13:39;;;;;;;0.40;0.40;;;22.10;58.40;;;;;;5026662;28;20037;-18
2022/09/20 04:16:23;;;;;;;0.50;0.50;;;22.10;58.40;;;;;;5001528;28;20045;-18
2022/09/20 04:19:07;;;;;;;0.40;0.30;;;22.00;58.40;;;;;;4985635;28;20042;-19
2022/09/20 04:21:34;;;;;;;0.35;0.30;;;22.00;58.40;;;;;;4985882;28;20037;-19
2022/09/20 04:24:29;;;;;;;0.30;0.30;;;22.10;58.50;;;;;;4981017;28;20041;-18
2022/09/20 04:27:00;;;;;;;0.45;0.45;;;22.10;58.30;;;;;;4984471;28;20085;-18
2022/09/20 04:29:52;;;;;;;0.45;0.45;;;22.10;58.40;;;;;;4963448;28;20856;-19
2022/09/20 04:32:36;;;;;;;0.25;0.25;;;22.00;58.40;;;;;;4999812;28;20089;-18
2022/09/20 04:38:19;;;;;;;0.30;0.30;;;22.10;58.10;;;;;;4956931;28;20589;-19
2022/09/20 04:41:06;;;;;;;0.52;0.30;;;22.10;58.30;;;;;;4964919;28;20043;-24
2022/09/20 04:44:10;;;;;;;0.52;0.52;;;22.10;58.20;;;;;;4961695;28;20140;-19
2022/09/20 04:46:48;;;;;;;0.55;0.35;;;22.10;58.30;;;;;;4963295;28;20132;-19
2022/09/20 04:49:35;;;;;;;3.70;0.90;;;22.00;58.30;;;;;;4962397;28;20494;-23
2022/09/20 04:52:22;;;;;;;0.30;0.30;;;22.00;58.40;;;;;;4960893;28;20047;-19
2022/09/20 04:55:09;;;;;;;0.82;0.30;;;22.00;58.50;;;;;;4962854;28;20128;-19
2022/09/20 04:58:09;;;;;;;0.30;0.22;;;22.00;58.40;;;;;;4960759;28;20081;-19
2022/09/20 05:01:05;;;;;;;0.30;0.30;;;22.00;58.50;;;;;;4961227;28;20049;-18
2022/09/20 05:03:49;;;;;;;0.20;0.20;;;22.00;58.60;;;;;;4961982;28;20433;-19
2022/09/20 05:06:39;;;;;;;0.20;0.20;;;22.00;58.60;;;;;;4963664;28;20038;-25
2022/09/20 05:09:30;;;;;;;0.40;0.40;;;22.00;58.40;;;;;;4945835;28;20062;-18
2022/09/20 05:12:01;;;;;;;0.20;0.20;;;22.00;58.50;;;;;;4958121;28;20035;-19
2022/09/20 05:14:43;;;;;;;0.35;0.35;;;22.00;58.50;;;;;;4948975;28;20136;-18
2022/09/20 05:17:33;;;;;;;1.05;0.40;;;22.00;58.50;;;;;;4985562;28;20034;-19
2022/09/20 05:20:09;;;;;;;0.30;0.30;;;21.90;58.60;;;;;;4983861;28;20413;-19
2022/09/20 05:23:04;;;;;;;0.25;0.25;;;21.90;58.70;;;;;;4982165;28;20053;-19
2022/09/20 05:25:50;;;;;;;0.80;0.30;;;22.00;59.40;;;;;;4981718;28;20140;-19
2022/09/20 05:28:44;;;;;;;0.30;0.30;;;21.90;58.70;;;;;;4982638;28;20038;-19
2022/09/20 05:31:27;;;;;;;0.57;0.30;;;21.90;58.60;;;;;;4982250;28;20054;-19
2022/09/20 05:33:52;;;;;;;0.20;0.20;;;21.90;58.70;;;;;;5000551;28;20059;-18
2022/09/20 05:36:48;;;;;;;0.30;0.30;;;21.90;58.70;;;;;;4985567;28;20073;-19
2022/09/20 05:39:35;;;;;;;0.20;0.20;;;21.90;58.60;;;;;;4985052;28;20046;-19
2022/09/20 05:42:17;;;;;;;0.28;0.28;;;21.90;58.70;;;;;;4998742;28;20113;-19
2022/09/20 05:45:28;;;;;;;0.40;0.32;;;21.90;58.80;;;;;;4982615;28;20049;-18
2022/09/20 05:47:58;;;;;;;0.30;0.30;;;21.90;58.70;;;;;;5026937;28;20420;-19
2022/09/20 05:50:49;;;;;;;0.20;0.20;;;21.90;58.70;;;;;;5026824;28;20045;-20
2022/09/20 05:53:33;;;;;;;0.30;0.30;;;21.90;59.10;;;;;;5027456;28;20040;-19
2022/09/20 05:56:43;;;;;;;1.60;0.30;;;21.90;58.50;;;;;;5044518;28;20563;-19
2022/09/20 05:59:29;;;;;;;0.28;0.20;;;21.90;58.60;;;;;;4618263;28;10000736;-20
2022/09/20 06:02:00;;;;;;;0.30;0.30;;;21.90;58.30;;;;;;4981577;28;20058;-19
2022/09/20 06:04:45;;;;;;;0.20;0.20;;;21.90;58.50;;;;;;4977854;28;20081;-19
2022/09/20 06:07:31;;;;;;;2.47;0.30;;;21.90;58.40;;;;;;4960198;28;20049;-19
2022/09/20 06:10:38;;;;;;;0.30;0.30;;;21.90;58.60;;;;;;4978981;28;20129;-19
2022/09/20 06:13:15;;;;;;;0.38;0.30;;;21.90;58.60;;;;;;4959658;28;20140;-19
2022/09/20 06:15:58;;;;;;;0.30;0.30;;;21.90;58.70;;;;;;4978295;28;20034;-19
2022/09/20 06:18:33;;;;;;;0.20;0.20;;;21.80;58.70;;;;;;4960826;28;20059;-19
2022/09/20 06:21:11;;;;;;;4.53;0.50;;;21.80;58.60;;;;;;4913595;28;20036;-20
2022/09/20 06:23:36;;;;;;;0.40;0.40;;;21.80;58.70;;;;;;4935543;28;20054;-19
2022/09/20 06:26:16;;;;;;;0.30;0.30;;;21.80;58.60;;;;;;4922506;28;20051;-23
2022/09/20 06:28:47;;;;;;;0.20;0.20;;;21.80;58.70;;;;;;4926884;28;20063;-19
2022/09/20 06:31:14;;;;;;;0.57;0.30;;;21.80;58.60;;;;;;4935050;28;20131;-26
2022/09/20 06:33:43;;;;;;;0.20;0.20;;;21.90;58.60;;;;;;4935632;28;20457;-19
2022/09/20 06:42:09;;;;;;;0.20;0.20;;;21.80;59.00;;;;;;4981343;28;20515;-20
2022/09/20 06:44:40;;;;;;;0.52;0.20;;;21.90;58.70;;;;;;4979925;28;20050;-19
2022/09/20 06:47:07;;;;;;;0.38;0.30;;;21.90;58.70;;;;;;4985777;28;20042;-20
2022/09/20 06:49:34;;;;;;;0.20;0.20;;;21.90;58.90;;;;;;4997830;28;20049;-22
2022/09/20 06:52:01;;;;;;;0.20;0.20;;;21.90;58.80;;;;;;4983970;28;20438;-20
2022/09/20 06:54:27;;;;;;;0.30;0.30;;;21.90;58.70;;;;;;4975576;28;20046;-19
2022/09/20 06:56:53;;;;;;;0.22;0.20;;;21.90;58.70;;;;;;4965762;28;20043;-19
2022/09/20 06:59:19;;;;;;;0.50;0.25;;;21.80;58.50;;;;;;4983311;28;20139;-44
2022/09/20 07:01:44;;;;;;;0.90;0.30;;;21.90;58.70;;;;;;4985720;28;20519;-45
2022/09/20 07:04:17;;;;;;;0.30;0.30;;;21.80;58.70;;;;;;5049731;27;20462;-60
2022/09/20 07:06:42;;;;;;;0.20;0.20;;;21.90;58.70;;;;;;5020926;28;20034;-61
2022/09/20 07:09:08;;;;;;;1.38;0.20;;;21.80;58.70;;;;;;5019102;28;20695;-59
2022/09/20 07:11:34;;;;;;;0.20;0.17;;;21.80;58.40;;;;;;5017417;28;20045;-59
2022/09/20 07:14:00;;;;;;;1.33;0.20;;;21.80;58.50;;;;;;5022865;28;20047;-61
2022/09/20 07:16:26;;;;;;;0.20;0.20;;;21.80;58.40;;;;;;5022288;28;20075;-58
2022/09/20 07:18:51;;;;;;;0.35;0.35;;;21.80;58.40;;;;;;5033612;28;20038;-60
2022/09/20 07:21:18;;;;;;;0.68;0.20;;;21.90;58.40;;;;;;5019434;28;20054;-54
2022/09/20 07:23:50;;;;;;;0.40;0.30;;;21.90;58.30;;;;;;5017971;28;20041;-57
2022/09/20 07:26:24;;;;;;;0.10;0.10;;;21.90;58.30;;;;;;5021584;28;20050;-58
2022/09/20 07:28:50;;;;;;;0.30;0.30;;;21.90;58.20;;;;;;5020014;28;20038;-62
2022/09/20 07:31:19;;;;;;;1.55;0.30;;;21.90;58.10;;;;;;5020427;28;20390;-61
2022/09/20 07:33:45;;;;;;;0.90;0.32;;;22.00;58.10;;;;;;5018056;28;20073;-58
2022/09/20 07:36:14;;;;;;;0.20;0.20;;;22.00;58.10;;;;;;5019195;28;20072;-59
2022/09/20 07:38:40;;;;;;;0.20;0.20;;;22.00;58.00;;;;;;5018167;28;20393;-59
2022/09/20 07:41:06;;;;;;;0.35;0.30;;;22.00;58.10;;;;;;5023183;28;20108;-55
2022/09/20 07:43:32;;;;;;;0.57;0.25;;;22.00;58.10;;;;;;5016973;28;20041;-58
2022/09/20 07:45:58;;;;;;;0.20;0.20;;;22.00;58.10;;;;;;5020136;28;20037;-58
2022/09/20 07:48:30;;;;;;;0.20;0.20;;;21.90;58.10;;;;;;5017717;28;20041;-59
2022/09/20 07:50:57;;;;;;;0.20;0.20;;;21.90;58.90;;;;;;5020208;28;20084;-61
2022/09/20 07:53:23;;;;;;;0.22;0.22;;;21.90;58.20;;;;;;5018797;28;20042;-62
2022/09/20 07:56:12;;;;;;;0.20;0.20;;;21.90;58.30;;;;;;5022297;28;20064;-60
2022/09/20 07:58:38;;;;;;;0.20;0.20;;;21.90;58.20;;;;;;5019181;28;20044;-61
2022/09/20 08:01:08;;;;;;;0.22;0.20;;;21.90;58.90;;;;;;5020173;28;20034;-60
2022/09/20 08:03:34;;;;;;;0.30;0.20;;;21.90;58.40;;;;;;5018573;28;20045;-60
2022/09/20 08:06:08;;;;;;;0.28;0.28;;;21.80;58.60;;;;;;5018668;28;20052;-61
2022/09/20 08:08:35;;;;;;;0.20;0.20;;;21.80;58.60;;;;;;5019007;28;20533;-58
2022/09/20 08:11:11;;;;;;;0.10;0.10;;;21.70;58.60;;;;;;5020547;28;20132;-60
2022/09/20 08:13:38;;;;;;;0.20;0.20;;;21.80;58.50;;;;;;5017156;28;20057;-54
2022/09/20 08:16:05;;;;;;;0.22;0.22;;;21.80;58.50;;;;;;5006727;28;20056;-60
2022/09/20 08:18:31;;;;;;;0.30;0.25;;;21.80;58.50;;;;;;5005071;28;20080;-61
2022/09/20 08:21:05;;;;;;;0.20;0.20;;;21.80;58.40;;;;;;5018231;28;20595;-62
2022/09/20 08:23:34;;;;;;;0.10;0.10;;;21.80;58.30;;;;;;5004140;28;20050;-61
2022/09/20 08:25:59;;;;;;;0.30;0.17;;;21.80;58.40;;;;;;5008701;28;20511;-57
2022/09/20 08:28:25;;;;;;;0.17;0.17;;;21.80;58.30;;;;;;5004354;28;20034;-62
2022/09/20 08:30:50;;;;;;;0.10;0.10;;;21.90;58.20;;;;;;5005884;28;20041;-61
2022/09/20 08:33:16;;;;;;;0.20;0.20;;;21.80;58.20;;;;;;5003677;28;20179;-55
2022/09/20 08:35:41;;;;;;;0.20;0.20;;;21.80;58.20;;;;;;5003343;28;20507;-59
2022/09/20 08:38:07;;;;;;;0.13;0.13;;;21.80;58.20;;;;;;5006396;28;20049;-57
2022/09/20 08:40:32;;;;;;;0.10;0.10;;;21.80;58.20;;;;;;5005948;28;20064;-60
2022/09/20 08:42:58;;;;;;;0.32;0.17;;;21.90;58.10;;;;;;5001910;28;20054;-61
2022/09/20 08:45:24;;;;;;;0.28;0.10;;;21.90;58.10;;;;;;5018206;28;20491;-62
2022/09/20 08:47:55;;;;;;;0.10;0.10;;;21.90;58.00;;;;;;5005114;28;20129;-59
2022/09/20 08:50:21;;;;;;;0.20;0.20;;;21.90;57.90;;;;;;5036431;28;20503;-58
2022/09/20 08:52:48;;;;;;;0.10;0.10;;;21.90;57.80;;;;;;4990326;28;20062;-58
2022/09/20 08:55:19;;;;;;;0.10;0.10;;;21.90;57.80;;;;;;5005546;28;20430;-56
2022/09/20 08:57:55;;;;;;;0.10;0.10;;;21.90;57.70;;;;;;5001423;28;20414;-56
2022/09/20 09:00:28;;;;;;;0.10;0.10;;;21.90;57.70;;;;;;5005489;28;20137;-57
2022/09/20 09:02:56;;;;;;;0.15;0.15;;;22.00;57.80;;;;;;4998478;28;20053;-61
2022/09/20 09:05:36;;;;;;;0.20;0.10;;;22.00;57.80;;;;;;5003944;28;20038;-58
2022/09/20 09:08:15;;;;;;;0.10;0.10;;;22.00;57.90;;;;;;5004715;28;20061;-61
2022/09/20 09:10:41;;;;;;;0.20;0.10;;;21.90;57.90;;;;;;5007011;28;20442;-58
2022/09/20 09:13:07;;;;;;;0.10;0.10;;;22.00;57.90;;;;;;4997085;28;20046;-59
2022/09/20 09:15:34;;;;;;;0.10;0.10;;;22.00;57.90;;;;;;5021388;28;20042;-60
2022/09/20 09:18:00;;;;;;;0.10;0.10;;;22.00;57.80;;;;;;5002598;28;20135;-57
2022/09/20 09:20:25;;;;;;;0.20;0.20;;;22.10;58.50;;;;;;5001057;28;20626;-58
2022/09/20 09:23:05;;;;;;;0.17;0.17;;;22.10;57.90;;;;;;5002995;28;20042;-59
2022/09/20 09:25:35;;;;;;;0.20;0.20;;;22.10;57.90;;;;;;5004598;28;20092;-58
2022/09/20 09:28:04;;;;;;;0.20;0.20;;;22.10;57.80;;;;;;4998597;28;20500;-57
2022/09/20 09:30:31;;;;;;;0.20;0.20;;;22.10;57.80;;;;;;5003256;28;20057;-55
2022/09/20 09:33:18;;;;;;;0.10;0.10;;;22.10;57.80;;;;;;5002975;28;20060;-55
2022/09/20 09:35:51;;;;;;;0.10;0.10;;;22.10;57.90;;;;;;5002747;28;20088;-41
2022/09/20 09:38:20;;;;;;;0.13;0.13;;;22.10;57.90;;;;;;5005671;28;20129;-53
2022/09/20 09:40:54;;;;;;;0.20;0.20;;;22.10;57.90;;;;;;5006696;28;20038;-59
2022/09/20 09:43:27;;;;;;;0.10;0.10;;;22.20;57.90;;;;;;5004116;28;20057;-60
2022/09/20 09:45:54;;;;;;;0.10;0.10;;;22.20;57.90;;;;;;5003382;28;20042;-57
2022/09/20 09:48:22;;;;;;;0.10;0.10;;;22.20;57.90;;;;;;5002159;28;20044;-62
2022/09/20 09:50:48;;;;;;;0.40;0.20;;;22.20;57.90;;;;;;5003854;28;20511;-52
2022/09/20 09:53:21;;;;;;;0.10;0.10;;;22.20;57.90;;;;;;5002719;28;20041;-58
2022/09/20 09:56:01;;;;;;;0.10;0.10;;;22.20;57.90;;;;;;5004938;28;20034;-52
2022/09/20 09:59:12;;;;;;;0.10;0.10;;;22.30;57.90;;;;;;5001532;28;20038;-58
2022/09/20 10:01:47;;;;;;;0.10;0.10;;;22.30;57.80;;;;;;4996927;28;20081;-59
2022/09/20 10:04:24;;;;;;;0.13;0.13;;;22.30;57.80;;;;;;5023974;28;20522;-55
2022/09/20 10:06:52;;;;;;;0.13;0.10;;;22.30;57.80;;;;;;4989486;28;20034;-58
2022/09/20 10:09:24;;;;;;;0.10;0.10;;;22.30;57.70;;;;;;5018020;28;20491;-60
2022/09/20 10:11:57;;;;;;;0.10;0.10;;;22.30;57.70;;;;;;5001711;28;20166;-58
2022/09/20 10:14:39;;;;;;;0.15;0.15;;;22.40;57.70;;;;;;4999953;28;20053;-59
2022/09/20 10:17:22;;;;;;;0.10;0.10;;;22.40;57.70;;;;;;5005283;28;20443;-51
2022/09/20 10:20:06;;;;;;;0.10;0.10;;;22.40;57.80;;;;;;5004100;28;20499;-51
2022/09/20 10:22:48;;;;;;;0.10;0.10;;;22.40;57.80;;;;;;5003298;28;20511;-51
2022/09/20 10:25:36;;;;;;;0.10;0.10;;;22.40;57.80;;;;;;5016954;28;20522;-57
2022/09/20 10:28:52;;;;;;;0.10;0.10;;;22.40;57.80;;;;;;5011285;28;20233;-61
2022/09/20 10:31:34;;;;;;;0.00;0.00;;;22.40;57.80;;;;;;4962352;28;20492;-58
2022/09/20 10:34:18;;;;;;;0.10;0.10;;;22.40;57.70;;;;;;4980872;28;20089;-62
2022/09/20 10:37:05;;;;;;;0.10;0.10;;;22.40;57.70;;;;;;4983788;28;20054;-63
2022/09/20 10:39:32;;;;;;;0.10;0.10;;;22.40;57.70;;;;;;4996268;28;20046;-56
2022/09/20 10:45:03;;;;;;;0.05;0.05;;;22.40;57.70;;;;;;4982658;28;20049;-58
2022/09/20 10:47:34;;;;;;;0.10;0.10;;;22.40;57.70;;;;;;4967204;28;20034;-54
2022/09/20 10:50:21;;;;;;;0.22;0.13;;;22.40;57.70;;;;;;4981645;28;20202;-60
2022/09/20 10:53:26;;;;;;;0.00;0.00;;;22.40;57.70;;;;;;4967046;28;20056;-58
2022/09/20 10:56:11;;;;;;;0.10;0.10;;;22.40;57.80;;;;;;4964650;28;20557;-57
2022/09/20 10:59:10;;;;;;;0.40;0.13;;;22.40;57.70;;;;;;4980750;28;20042;-54
2022/09/20 11:02:01;;;;;;;0.10;0.10;;;22.40;57.70;;;;;;4975788;28;20400;-51
2022/09/20 11:04:45;;;;;;;0.30;0.10;;;22.40;57.70;;;;;;4999574;28;20054;-57
2022/09/20 11:07:14;;;;;;;0.10;0.10;;;22.40;57.70;;;;;;4996630;28;20913;-46
2022/09/20 11:09:49;;;;;;;0.10;0.10;;;22.40;57.80;;;;;;5019385;28;20117;-43
2022/09/20 11:12:38;;;;;;;0.20;0.10;;;22.40;57.70;;;;;;5015982;28;20519;-47
2022/09/20 11:15:13;;;;;;;0.20;0.20;;;22.40;57.90;;;;;;5002815;28;20029;-59
2022/09/20 11:17:44;;;;;;;0.10;0.10;;;22.40;57.90;;;;;;4648508;28;10000371;-57
2022/09/20 11:20:17;;;;;;;0.28;0.15;;;22.30;57.80;;;;;;4990932;28;20507;-54
2022/09/20 11:22:47;;;;;;;0.20;0.10;;;22.40;57.80;;;;;;5014693;28;20050;-60
2022/09/20 11:25:32;;;;;;;0.20;0.10;;;22.40;57.60;;;;;;4981032;28;20050;-51
2022/09/20 11:28:10;;;;;;;0.10;0.10;;;22.40;57.60;;;;;;4996863;28;20380;-60
2022/09/20 11:30:39;;;;;;;0.10;0.10;;;22.30;57.50;;;;;;4675286;28;10000374;-55
2022/09/20 11:33:16;;;;;;;0.47;0.20;;;22.30;57.20;;;;;;5010275;28;20050;-58
2022/09/20 11:35:50;;;;;;;1.27;0.30;;;22.30;57.20;;;;;;5002469;28;20525;-56
2022/09/20 11:38:23;;;;;;;0.15;0.10;;;22.40;57.30;;;;;;5016784;28;20046;-46
2022/09/20 11:41:03;;;;;;;0.50;0.30;;;22.30;57.00;;;;;;5005612;28;20050;-60
2022/09/20 11:43:30;;;;;;;0.30;0.17;;;22.40;57.00;;;;;;5013193;28;20133;-58
2022/09/20 11:46:00;;;;;;;0.20;0.20;;;22.40;57.00;;;;;;5011325;28;20188;-60
2022/09/20 11:48:29;;;;;;;0.20;0.20;;;22.30;56.70;;;;;;5017381;28;20136;-45
2022/09/20 11:51:07;;;;;;;0.20;0.20;;;22.30;56.90;;;;;;5007054;28;20108;-39
2022/09/20 11:53:39;;;;;;;0.20;0.20;;;22.30;57.00;;;;;;5003145;28;20419;-59
2022/09/20 11:56:10;;;;;;;0.20;0.20;;;22.30;56.90;;;;;;5007808;28;20045;-59
2022/09/20 11:58:47;;;;;;;0.20;0.20;;;22.30;56.60;;;;;;5004204;28;20041;-56
2022/09/20 12:01:13;;;;;;;0.22;0.20;;;22.30;56.70;;;;;;4998380;28;20049;-59
2022/09/20 12:03:39;;;;;;;0.10;0.10;;;22.30;56.60;;;;;;5020134;28;20049;-60
2022/09/20 12:06:06;;;;;;;0.10;0.10;;;22.30;56.80;;;;;;5003542;28;20499;-51
2022/09/20 12:08:36;;;;;;;0.20;0.20;;;22.30;56.40;;;;;;5005875;28;20479;-59
2022/09/20 12:11:10;;;;;;;0.10;0.10;;;22.30;56.50;;;;;;5023991;28;20160;-59
2022/09/20 12:13:51;;;;;;;0.30;0.10;;;22.30;56.60;;;;;;5001926;28;20034;-54
2022/09/20 12:16:33;;;;;;;0.20;0.20;;;22.30;56.60;;;;;;5005656;28;20069;-59
2022/09/20 12:19:00;;;;;;;0.20;0.17;;;22.40;56.60;;;;;;5004072;28;20588;-54
2022/09/20 12:21:27;;;;;;;0.30;0.30;;;22.40;56.60;;;;;;5006997;28;20096;-60
2022/09/20 12:23:55;;;;;;;0.70;0.20;;;22.40;56.50;;;;;;5004131;28;20046;-59
2022/09/20 12:26:21;;;;;;;0.70;0.20;;;22.40;56.60;;;;;;5006517;28;20053;-52
2022/09/20 12:28:53;;;;;;;0.28;0.28;;;22.40;56.50;;;;;;5006030;28;20050;-59
2022/09/20 12:31:24;;;;;;;0.25;0.15;;;22.40;56.60;;;;;;5016996;28;20141;-60
2022/09/20 12:34:14;;;;;;;0.20;0.20;;;22.40;56.50;;;;;;5004364;28;20077;-58
2022/09/20 12:36:45;;;;;;;0.20;0.20;;;22.40;56.60;;;;;;5003851;28;20553;-57
2022/09/20 12:39:10;;;;;;;0.20;0.20;;;22.40;56.60;;;;;;5015448;28;20031;-61
2022/09/20 12:41:46;;;;;;;1.00;0.47;;;22.40;56.70;;;;;;5003731;28;20517;-60
2022/09/20 12:44:33;;;;;;;0.30;0.30;;;22.40;56.60;;;;;;5004211;28;20059;-62
2022/09/20 12:47:03;;;;;;;0.40;0.20;;;22.40;56.70;;;;;;5008194;28;20030;-59
2022/09/20 12:52:49;;;;;;;0.15;0.15;;;22.40;57.20;;;;;;5004511;28;20111;-59
2022/09/20 12:55:39;;;;;;;0.10;0.10;;;22.40;56.70;;;;;;5003813;28;20049;-58
2022/09/20 12:58:13;;;;;;;0.10;0.10;;;22.40;56.70;;;;;;5002876;28;20038;-62
2022/09/20 13:00:44;;;;;;;0.10;0.10;;;22.40;56.70;;;;;;5004220;28;20053;-61
2022/09/20 13:03:09;;;;;;;0.13;0.10;;;22.50;56.80;;;;;;5003648;28;20061;-55
2022/09/20 13:05:44;;;;;;;0.25;0.20;;;22.40;56.70;;;;;;5001189;28;20034;-58
2022/09/20 13:08:28;;;;;;;0.20;0.10;;;22.40;56.80;;;;;;5005840;28;20204;-60
2022/09/20 13:11:11;;;;;;;0.40;0.10;;;22.40;56.90;;;;;;5004400;28;20121;-55
2022/09/20 13:13:50;;;;;;;0.20;0.20;;;22.40;56.90;;;;;;5013794;28;20507;-58
2022/09/20 13:16:26;;;;;;;0.32;0.20;;;22.40;56.90;;;;;;5003254;28;20046;-59
2022/09/20 13:19:06;;;;;;;0.03;0.03;;;22.40;57.00;;;;;;5015693;28;20046;-52
2022/09/20 13:21:33;;;;;;;0.10;0.10;;;22.40;57.70;;;;;;5002188;28;20095;-62
2022/09/20 13:23:59;;;;;;;0.20;0.20;;;22.40;57.10;;;;;;5030563;28;20129;-60
2022/09/20 13:26:44;;;;;;;0.10;0.10;;;22.40;57.10;;;;;;5004377;28;20618;-55
2022/09/20 13:29:26;;;;;;;0.20;0.20;;;22.40;57.20;;;;;;5026899;28;20061;-48
2022/09/20 13:31:51;;;;;;;0.20;0.20;;;22.40;57.30;;;;;;5015638;28;20188;-46
2022/09/20 13:34:19;;;;;;;0.17;0.17;;;22.40;57.20;;;;;;5002395;28;20050;-52
2022/09/20 13:36:45;;;;;;;0.10;0.10;;;22.40;57.20;;;;;;5006574;28;20046;-62
2022/09/20 13:39:29;;;;;;;0.10;0.10;;;22.40;57.30;;;;;;5002369;28;20042;-58
2022/09/20 13:42:00;;;;;;;0.30;0.30;;;22.40;57.30;;;;;;5005787;28;20046;-57
2022/09/20 13:44:26;;;;;;;0.10;0.10;;;22.40;57.30;;;;;;4972944;28;20117;-56
2022/09/20 13:46:52;;;;;;;0.38;0.30;;;22.40;57.30;;;;;;5009239;28;20042;-59